Time;durP1;ratioP1;P1;durP2;ratioP2;P2;SDS_P1;SDS_P2;PMS_P1;PMS_P2;Temp;Humidity;BMP_temperature;BMP_pressure;BME280_temperature;BME280_humidity;BME280_pressure;Samples;Min_cycle;Max_cycle;Signal;HPM_P1;HPM_P2
2021/11/04 00:02:10;;;;;;;28.45;5.35;;;5.70;99.90;;;;;;5057105;28;20032;-79
2021/11/04 00:04:36;;;;;;;36.67;6.30;;;5.70;99.90;;;;;;5074754;28;20024;-79
2021/11/04 00:07:02;;;;;;;14.20;5.50;;;5.70;99.90;;;;;;5075259;28;20477;-79
2021/11/04 00:09:28;;;;;;;27.38;6.03;;;5.70;99.90;;;;;;5074947;28;20044;-79
2021/11/04 00:11:53;;;;;;;22.70;5.50;;;5.70;99.90;;;;;;5074922;28;20426;-79
2021/11/04 00:14:19;;;;;;;25.60;6.00;;;5.70;99.90;;;;;;5066598;28;20412;-78
2021/11/04 00:16:45;;;;;;;34.17;5.78;;;5.70;99.90;;;;;;5065680;28;20024;-78
2021/11/04 00:19:11;;;;;;;22.67;5.50;;;5.80;99.90;;;;;;5071987;28;20032;-78
2021/11/04 00:21:36;;;;;;;18.15;5.72;;;5.70;99.90;;;;;;5082517;28;20013;-78
2021/11/04 00:24:03;;;;;;;21.38;5.32;;;5.70;99.90;;;;;;5080516;28;20025;-78
2021/11/04 00:26:29;;;;;;;16.05;5.40;;;5.80;99.90;;;;;;5083385;28;20089;-78
2021/11/04 00:28:56;;;;;;;23.63;5.05;;;5.70;99.90;;;;;;5062429;28;20016;-79
2021/11/04 00:31:23;;;;;;;23.73;5.30;;;5.80;99.90;;;;;;5089783;28;20012;-79
2021/11/04 00:33:52;;;;;;;13.48;4.38;;;5.70;99.90;;;;;;5070609;28;20115;-78
2021/11/04 00:36:19;;;;;;;13.13;5.68;;;5.70;99.90;;;;;;5072132;28;20111;-78
2021/11/04 00:38:47;;;;;;;14.93;5.00;;;5.70;99.90;;;;;;5065432;28;20054;-78
2021/11/04 00:41:13;;;;;;;13.98;4.47;;;5.70;99.90;;;;;;5061448;28;20025;-78
2021/11/04 00:43:40;;;;;;;23.85;5.13;;;5.80;99.90;;;;;;5082389;28;20055;-78
2021/11/04 00:46:06;;;;;;;15.15;5.10;;;5.80;99.90;;;;;;5060570;28;20127;-78
2021/11/04 00:48:31;;;;;;;12.60;4.63;;;5.80;99.90;;;;;;5065155;28;20032;-78
2021/11/04 00:50:57;;;;;;;16.20;4.70;;;5.80;99.90;;;;;;5062264;28;20420;-78
2021/11/04 00:53:23;;;;;;;16.55;5.38;;;5.80;99.90;;;;;;5080946;28;20016;-79
2021/11/04 00:55:49;;;;;;;20.90;5.75;;;5.80;99.90;;;;;;5079324;28;20025;-77
2021/11/04 00:58:15;;;;;;;12.07;5.32;;;5.80;99.90;;;;;;5063559;28;20025;-77
2021/11/04 01:00:41;;;;;;;13.50;5.28;;;5.80;99.90;;;;;;5079965;28;20024;-76
2021/11/04 01:03:07;;;;;;;13.07;5.57;;;5.80;99.90;;;;;;5061050;28;20099;-77
2021/11/04 01:05:32;;;;;;;19.10;5.38;;;5.80;99.90;;;;;;5079013;28;20021;-76
2021/11/04 01:07:59;;;;;;;19.33;5.82;;;5.80;99.90;;;;;;5078924;28;20024;-77
2021/11/04 01:10:25;;;;;;;23.80;5.70;;;5.80;99.90;;;;;;5085241;28;20047;-77
2021/11/04 01:12:51;;;;;;;15.68;5.43;;;5.80;99.90;;;;;;5064415;28;20021;-77
2021/11/04 01:15:18;;;;;;;18.45;5.22;;;5.80;99.90;;;;;;5083495;28;20028;-78
2021/11/04 01:17:44;;;;;;;17.38;4.85;;;5.80;99.90;;;;;;5083164;28;20030;-77
2021/11/04 01:20:10;;;;;;;15.50;4.78;;;5.80;99.90;;;;;;5066788;28;20084;-75
2021/11/04 01:22:36;;;;;;;12.02;5.03;;;5.80;99.90;;;;;;5079508;28;20481;-77
2021/11/04 01:25:03;;;;;;;19.35;5.03;;;6.20;99.90;;;;;;5062905;28;20090;-77
2021/11/04 01:27:29;;;;;;;17.50;4.97;;;5.70;99.90;;;;;;5060303;28;20100;-77
2021/11/04 01:29:55;;;;;;;16.35;4.55;;;5.70;99.90;;;;;;5077911;28;20025;-77
2021/11/04 01:32:21;;;;;;;17.65;4.43;;;5.70;99.90;;;;;;5080093;28;20086;-75
2021/11/04 01:34:47;;;;;;;25.52;4.57;;;5.60;99.90;;;;;;5078645;28;20016;-76
2021/11/04 01:37:13;;;;;;;14.00;4.95;;;5.60;99.90;;;;;;5062363;28;20017;-76
2021/11/04 01:39:38;;;;;;;22.17;4.45;;;5.60;99.90;;;;;;5086766;28;20025;-76
2021/11/04 01:42:04;;;;;;;18.35;4.43;;;5.50;99.90;;;;;;5081105;28;20021;-76
2021/11/04 01:44:31;;;;;;;22.50;3.63;;;5.50;99.90;;;;;;5080075;28;20040;-76
2021/11/04 01:46:56;;;;;;;16.95;3.47;;;5.40;99.90;;;;;;5061021;28;20028;-76
2021/11/04 01:49:22;;;;;;;23.13;3.55;;;5.40;99.90;;;;;;5069031;28;20021;-76
2021/11/04 01:51:48;;;;;;;20.60;3.47;;;5.30;99.90;;;;;;5061084;28;20021;-76
2021/11/04 01:54:13;;;;;;;33.35;3.55;;;5.30;99.90;;;;;;5063534;28;20119;-76
2021/11/04 01:56:40;;;;;;;31.75;4.15;;;5.20;99.90;;;;;;5080714;28;20024;-76
2021/11/04 01:59:06;;;;;;;34.75;5.00;;;5.20;99.90;;;;;;5061755;28;20021;-77
2021/11/04 02:01:32;;;;;;;41.83;3.97;;;5.20;99.90;;;;;;5082563;28;20081;-77
2021/11/04 02:04:10;;;;;;;44.22;4.35;;;5.40;99.90;;;;;;5069122;28;20052;-76
2021/11/04 02:06:59;;;;;;;26.25;3.47;;;5.60;99.90;;;;;;5065354;28;20016;-77
2021/11/04 02:10:07;;;;;;;24.38;3.63;;;5.10;99.90;;;;;;5089030;28;20021;-77
2021/11/04 02:12:54;;;;;;;25.30;3.75;;;5.10;99.90;;;;;;5005482;28;20148;-76
2021/11/04 02:15:21;;;;;;;25.30;3.55;;;5.10;99.90;;;;;;5084137;28;20121;-77
2021/11/04 02:17:48;;;;;;;23.00;3.60;;;5.00;99.90;;;;;;5065240;28;20580;-76
2021/11/04 02:20:29;;;;;;;16.73;3.10;;;5.00;99.90;;;;;;5087349;28;20099;-76
2021/11/04 02:23:04;;;;;;;23.50;3.30;;;5.00;99.90;;;;;;5081878;28;20028;-75
2021/11/04 02:25:32;;;;;;;30.98;3.58;;;4.90;99.90;;;;;;5080689;28;20036;-75
2021/11/04 02:28:00;;;;;;;46.53;4.05;;;4.90;99.90;;;;;;5087006;28;20106;-75
2021/11/04 02:30:28;;;;;;;24.15;3.50;;;4.90;99.90;;;;;;5066375;28;20024;-77
2021/11/04 02:32:57;;;;;;;37.80;3.85;;;5.60;99.90;;;;;;5082623;28;20033;-77
2021/11/04 02:35:23;;;;;;;33.75;3.38;;;4.80;99.90;;;;;;5087428;28;20025;-77
2021/11/04 02:37:52;;;;;;;28.70;3.85;;;4.80;99.90;;;;;;5092182;28;20024;-77
2021/11/04 02:40:20;;;;;;;34.33;3.38;;;4.70;99.90;;;;;;5087462;28;20184;-77
2021/11/04 02:42:46;;;;;;;22.88;3.15;;;4.70;99.90;;;;;;5089446;28;20051;-77
2021/11/04 02:45:16;;;;;;;23.38;3.50;;;4.80;99.90;;;;;;5067381;28;20036;-77
2021/11/04 02:47:42;;;;;;;23.55;4.30;;;4.60;99.90;;;;;;5090594;28;20050;-77
2021/11/04 02:50:09;;;;;;;23.10;4.18;;;4.60;99.90;;;;;;5080260;28;20078;-77
2021/11/04 02:52:36;;;;;;;12.88;3.03;;;4.50;99.90;;;;;;5080365;28;20044;-77
2021/11/04 02:55:04;;;;;;;12.55;2.80;;;4.60;99.90;;;;;;5085761;28;20021;-77
2021/11/04 02:57:30;;;;;;;22.15;3.42;;;4.60;99.90;;;;;;5065169;28;20020;-78
2021/11/04 02:59:56;;;;;;;19.73;2.90;;;4.50;99.90;;;;;;5080682;28;20027;-78
2021/11/04 03:02:22;;;;;;;25.52;3.33;;;4.50;99.90;;;;;;5081497;28;20032;-77
2021/11/04 03:04:48;;;;;;;28.08;3.17;;;4.50;99.90;;;;;;5080987;28;20016;-77
2021/11/04 03:07:13;;;;;;;17.55;3.00;;;4.50;99.90;;;;;;5062891;28;20042;-77
2021/11/04 03:09:39;;;;;;;19.15;3.28;;;4.50;99.90;;;;;;5080728;28;20033;-77
2021/11/04 03:12:06;;;;;;;30.83;4.07;;;4.50;99.90;;;;;;5078811;28;20020;-77
2021/11/04 03:14:31;;;;;;;29.75;3.83;;;4.50;99.90;;;;;;5077775;28;20465;-77
2021/11/04 03:16:59;;;;;;;19.83;5.93;;;4.50;99.90;;;;;;5080790;28;20035;-77
2021/11/04 03:19:27;;;;;;;36.10;4.82;;;4.50;99.90;;;;;;5067193;28;20541;-77
2021/11/04 03:21:57;;;;;;;41.85;4.18;;;4.50;99.90;;;;;;5068513;28;20027;-77
2021/11/04 03:24:25;;;;;;;36.95;4.72;;;6.20;99.90;;;;;;5066035;28;20017;-77
2021/11/04 03:27:04;;;;;;;39.60;4.10;;;4.60;99.90;;;;;;5065002;28;20553;-77
2021/11/04 03:29:33;;;;;;;21.45;3.80;;;4.50;99.90;;;;;;5082596;28;20024;-77
2021/11/04 03:32:01;;;;;;;17.00;3.55;;;4.50;99.90;;;;;;5085413;28;20020;-77
2021/11/04 03:34:27;;;;;;;31.50;5.28;;;4.60;99.90;;;;;;5067478;28;20036;-77
2021/11/04 03:36:54;;;;;;;28.58;5.93;;;4.60;99.90;;;;;;5082010;28;20024;-77
2021/11/04 03:39:21;;;;;;;28.25;5.30;;;4.60;99.90;;;;;;5081034;28;20024;-77
2021/11/04 03:41:49;;;;;;;34.13;5.45;;;4.60;99.90;;;;;;5080432;28;20013;-78
2021/11/04 03:44:19;;;;;;;45.83;5.85;;;4.70;99.90;;;;;;5081193;28;20009;-78
2021/11/04 03:46:45;;;;;;;22.48;5.60;;;4.70;99.90;;;;;;5063808;28;20051;-78
2021/11/04 03:49:13;;;;;;;22.20;5.20;;;4.70;99.90;;;;;;5081667;28;20025;-78
2021/11/04 03:51:39;;;;;;;28.90;6.90;;;4.80;99.90;;;;;;5065699;28;20024;-78
2021/11/04 03:54:05;;;;;;;32.80;5.90;;;4.80;99.90;;;;;;5083545;28;20289;-78
2021/11/04 03:56:31;;;;;;;29.25;5.60;;;4.80;99.90;;;;;;5084292;28;20115;-78
2021/11/04 03:58:56;;;;;;;26.13;5.35;;;4.80;99.90;;;;;;5084252;28;20428;-78
2021/11/04 04:01:22;;;;;;;30.77;6.32;;;5.00;99.90;;;;;;5083348;28;20021;-78
2021/11/04 04:03:48;;;;;;;25.98;5.03;;;4.80;99.90;;;;;;5067988;28;20039;-78
2021/11/04 04:06:13;;;;;;;27.63;5.60;;;4.80;99.90;;;;;;5084150;28;20028;-78
2021/11/04 04:08:46;;;;;;;44.63;5.00;;;4.80;99.90;;;;;;5065496;28;20024;-77
2021/11/04 04:11:12;;;;;;;40.25;5.25;;;4.80;99.90;;;;;;5080252;28;20026;-77
2021/11/04 04:13:37;;;;;;;38.00;6.15;;;4.80;99.90;;;;;;5081677;28;20045;-79
2021/11/04 04:16:03;;;;;;;30.55;4.93;;;4.90;99.90;;;;;;5084446;28;20025;-78
2021/11/04 04:18:29;;;;;;;37.00;4.80;;;4.90;99.90;;;;;;5084157;28;20039;-78
2021/11/04 04:20:54;;;;;;;31.83;5.07;;;4.90;99.90;;;;;;5069766;28;20461;-77
2021/11/04 04:23:20;;;;;;;50.22;5.40;;;4.90;99.90;;;;;;5088717;28;20035;-76
2021/11/04 04:25:46;;;;;;;27.27;4.70;;;4.80;99.90;;;;;;5085241;28;20028;-78
2021/11/04 04:28:12;;;;;;;27.55;5.72;;;4.80;99.90;;;;;;5064921;28;20059;-77
2021/11/04 04:30:37;;;;;;;27.73;4.22;;;4.80;99.90;;;;;;5062387;28;20020;-78
2021/11/04 04:33:03;;;;;;;14.15;4.30;;;4.80;99.90;;;;;;5084543;28;20032;-78
2021/11/04 04:35:29;;;;;;;27.13;4.55;;;4.90;99.90;;;;;;5063518;28;20032;-78
2021/11/04 04:37:55;;;;;;;26.25;4.55;;;4.80;99.90;;;;;;5082441;28;20067;-78
2021/11/04 04:40:20;;;;;;;31.63;3.58;;;4.80;99.90;;;;;;5083426;28;20050;-78
2021/11/04 04:42:47;;;;;;;29.67;4.32;;;4.80;99.90;;;;;;5081724;28;20028;-78
2021/11/04 04:45:16;;;;;;;13.30;4.03;;;4.70;99.90;;;;;;5062059;28;20108;-78
2021/11/04 04:47:42;;;;;;;19.30;4.13;;;4.70;99.90;;;;;;5059743;28;20469;-78
2021/11/04 04:50:08;;;;;;;21.52;3.90;;;4.70;99.90;;;;;;5062194;28;20020;-78
2021/11/04 04:52:34;;;;;;;26.80;4.28;;;4.70;99.90;;;;;;5080775;28;20078;-78
2021/11/04 04:55:01;;;;;;;21.48;4.00;;;4.60;99.90;;;;;;5062719;28;20043;-78
2021/11/04 04:57:27;;;;;;;20.50;3.95;;;4.60;99.90;;;;;;5062238;28;20089;-78
2021/11/04 04:59:57;;;;;;;26.42;3.72;;;4.60;99.90;;;;;;5080422;28;20066;-77
2021/11/04 05:02:27;;;;;;;23.27;3.80;;;4.50;99.90;;;;;;5079009;28;20020;-78
2021/11/04 05:04:54;;;;;;;17.98;3.45;;;4.50;99.90;;;;;;5080536;28;20025;-78
2021/11/04 05:07:20;;;;;;;8.52;3.00;;;4.50;99.90;;;;;;5080145;28;20013;-77
2021/11/04 05:09:45;;;;;;;12.70;2.85;;;4.50;99.90;;;;;;5060350;28;20491;-77
2021/11/04 05:12:11;;;;;;;12.30;3.92;;;4.50;99.90;;;;;;5078309;28;20028;-76
2021/11/04 05:14:37;;;;;;;9.50;2.67;;;4.50;99.90;;;;;;5060274;28;20382;-77
2021/11/04 05:17:03;;;;;;;13.75;4.05;;;4.50;99.90;;;;;;5078245;28;20501;-78
2021/11/04 05:19:29;;;;;;;12.60;4.22;;;4.50;99.90;;;;;;5058557;28;20037;-77
2021/11/04 05:21:55;;;;;;;7.10;3.50;;;4.50;99.90;;;;;;5059314;28;20448;-77
2021/11/04 05:24:20;;;;;;;8.75;3.63;;;4.50;99.90;;;;;;5058151;28;20103;-77
2021/11/04 05:26:47;;;;;;;7.28;3.28;;;4.50;99.90;;;;;;5052233;28;20048;-78
2021/11/04 05:29:13;;;;;;;7.72;3.75;;;4.50;99.90;;;;;;5079134;28;20021;-77
2021/11/04 05:31:40;;;;;;;11.38;4.25;;;4.50;99.90;;;;;;5078543;28;20021;-76
2021/11/04 05:34:05;;;;;;;6.20;3.63;;;4.50;99.90;;;;;;5061210;28;20024;-76
2021/11/04 05:36:32;;;;;;;6.93;3.90;;;4.40;99.90;;;;;;5082417;28;20469;-77
2021/11/04 05:38:58;;;;;;;7.40;3.90;;;4.40;99.90;;;;;;5064772;28;20024;-78
2021/11/04 05:41:23;;;;;;;7.75;3.92;;;4.40;99.90;;;;;;5063789;28;20402;-77
2021/11/04 05:43:49;;;;;;;10.52;4.25;;;4.40;99.90;;;;;;5082584;28;20025;-77
2021/11/04 05:46:15;;;;;;;7.00;3.65;;;4.30;99.90;;;;;;5064410;28;20029;-76
2021/11/04 05:48:40;;;;;;;6.60;3.50;;;4.40;99.90;;;;;;5083266;28;20098;-78
2021/11/04 05:51:06;;;;;;;7.82;3.35;;;4.30;99.90;;;;;;5064272;28;20017;-77
2021/11/04 05:53:32;;;;;;;6.47;3.28;;;4.30;99.90;;;;;;5081613;28;20021;-78
2021/11/04 05:55:58;;;;;;;6.38;3.50;;;4.40;99.90;;;;;;5082407;28;20172;-77
2021/11/04 05:58:24;;;;;;;9.68;4.13;;;4.40;99.90;;;;;;5082290;28;20029;-77
2021/11/04 06:00:49;;;;;;;11.43;4.10;;;4.40;99.90;;;;;;5081702;28;20031;-78
2021/11/04 06:03:15;;;;;;;5.90;3.75;;;4.40;99.90;;;;;;5081988;28;20141;-78
2021/11/04 06:05:41;;;;;;;7.90;4.40;;;4.50;99.90;;;;;;5062780;28;20024;-78
2021/11/04 06:08:08;;;;;;;9.98;4.97;;;4.50;99.90;;;;;;5058784;28;20047;-78
2021/11/04 06:10:34;;;;;;;20.92;5.72;;;4.60;99.90;;;;;;5076612;28;20021;-78
2021/11/04 06:13:00;;;;;;;10.27;4.95;;;4.60;99.90;;;;;;5076355;28;20033;-78
2021/11/04 06:15:25;;;;;;;11.88;5.18;;;4.70;99.90;;;;;;5058548;28;20035;-78
2021/11/04 06:17:51;;;;;;;10.65;5.40;;;4.70;99.90;;;;;;5076271;28;20075;-78
2021/11/04 06:20:17;;;;;;;9.90;4.93;;;4.90;99.90;;;;;;5076447;28;20441;-77
2021/11/04 06:22:42;;;;;;;13.07;4.88;;;4.80;99.90;;;;;;5077173;28;20016;-78
2021/11/04 06:25:09;;;;;;;10.48;5.70;;;4.90;99.90;;;;;;5076938;28;20363;-77
2021/11/04 06:27:36;;;;;;;8.70;4.90;;;4.70;99.90;;;;;;5058687;28;20027;-77
2021/11/04 06:30:04;;;;;;;9.23;5.18;;;5.00;99.90;;;;;;5060667;28;20477;-77
2021/11/04 06:32:30;;;;;;;11.20;5.27;;;5.00;99.90;;;;;;5062863;28;20062;-72
2021/11/04 06:34:55;;;;;;;9.32;5.05;;;5.10;99.90;;;;;;5080900;28;20025;-76
2021/11/04 06:37:21;;;;;;;11.00;5.40;;;5.10;99.90;;;;;;5062356;28;20381;-77
2021/11/04 06:39:47;;;;;;;10.27;5.50;;;5.20;99.90;;;;;;5062667;28;20088;-77
2021/11/04 06:42:12;;;;;;;8.85;5.32;;;5.20;99.90;;;;;;5062706;28;20547;-78
2021/11/04 06:44:38;;;;;;;11.93;6.00;;;5.30;99.90;;;;;;5062950;28;20115;-77
2021/11/04 06:47:09;;;;;;;10.02;5.40;;;5.30;99.90;;;;;;5080288;28;20020;-77
2021/11/04 06:49:38;;;;;;;9.95;5.47;;;5.40;99.90;;;;;;5080810;28;20020;-77
2021/11/04 06:52:06;;;;;;;9.77;5.47;;;5.40;99.90;;;;;;5080971;28;20025;-78
2021/11/04 06:54:35;;;;;;;9.30;5.03;;;5.40;99.90;;;;;;5062980;28;20016;-78
2021/11/04 06:57:03;;;;;;;8.38;4.63;;;5.40;99.90;;;;;;5061600;28;20463;-78
2021/11/04 06:59:34;;;;;;;9.63;5.00;;;5.50;99.90;;;;;;5081584;28;20024;-79
2021/11/04 07:02:03;;;;;;;10.93;4.75;;;6.20;99.90;;;;;;5080771;28;20029;-77
2021/11/04 07:04:35;;;;;;;10.15;5.30;;;5.60;99.90;;;;;;5062397;28;20409;-78
2021/11/04 07:07:10;;;;;;;9.43;4.60;;;5.80;99.90;;;;;;5079442;28;20039;-79
2021/11/04 07:09:40;;;;;;;9.30;4.70;;;5.60;99.90;;;;;;5080536;28;20528;-78
2021/11/04 07:12:09;;;;;;;8.85;4.97;;;5.70;99.90;;;;;;5080199;28;20024;-77
2021/11/04 07:14:36;;;;;;;9.73;5.50;;;5.70;99.90;;;;;;5079650;28;20070;-78
2021/11/04 07:17:03;;;;;;;8.13;4.75;;;5.70;99.90;;;;;;5060328;28;20074;-77
2021/11/04 07:19:30;;;;;;;8.55;5.18;;;5.80;99.90;;;;;;5059269;28;20078;-77
2021/11/04 07:22:03;;;;;;;9.20;5.13;;;5.80;99.90;;;;;;5041764;28;20025;-77
2021/11/04 07:24:32;;;;;;;8.93;5.07;;;5.80;99.90;;;;;;5041730;28;20116;-78
2021/11/04 07:27:10;;;;;;;11.55;5.05;;;5.80;99.90;;;;;;5059244;28;20086;-77
2021/11/04 07:29:41;;;;;;;7.90;4.80;;;5.80;99.90;;;;;;5041059;28;20026;-78
2021/11/04 07:32:08;;;;;;;11.13;5.00;;;5.90;99.90;;;;;;5059388;28;20028;-78
2021/11/04 07:34:34;;;;;;;14.40;4.80;;;5.90;99.90;;;;;;5059230;28;20021;-78
2021/11/04 07:37:01;;;;;;;11.63;5.05;;;5.90;99.90;;;;;;5041161;28;20031;-78
2021/11/04 07:39:27;;;;;;;8.50;4.15;;;5.90;99.90;;;;;;5058538;28;20025;-78
2021/11/04 07:41:53;;;;;;;10.15;5.18;;;5.90;99.90;;;;;;5059458;28;20032;-79
2021/11/04 07:44:19;;;;;;;8.30;5.28;;;6.00;99.90;;;;;;5041364;28;20406;-78
2021/11/04 07:46:44;;;;;;;10.85;5.15;;;6.00;99.90;;;;;;5038341;28;20025;-78
2021/11/04 07:49:10;;;;;;;10.10;4.88;;;6.10;99.90;;;;;;5055852;28;20485;-78
2021/11/04 07:51:36;;;;;;;9.05;4.70;;;6.20;99.90;;;;;;5055431;28;20057;-78
2021/11/04 07:54:04;;;;;;;10.27;4.63;;;6.30;99.90;;;;;;5054974;28;20025;-78
2021/11/04 07:56:30;;;;;;;8.98;5.38;;;6.40;99.90;;;;;;5053891;28;20478;-78
2021/11/04 07:58:55;;;;;;;9.13;4.60;;;6.50;99.90;;;;;;5036448;28;20070;-79
2021/11/04 08:01:21;;;;;;;11.15;5.78;;;6.50;99.90;;;;;;5055080;28;20025;-78
2021/11/04 08:03:47;;;;;;;9.00;4.90;;;6.60;99.90;;;;;;5038187;28;20025;-79
2021/11/04 08:06:14;;;;;;;9.23;5.32;;;6.60;99.90;;;;;;5037497;28;20037;-78
2021/11/04 08:08:40;;;;;;;9.35;4.85;;;6.70;99.90;;;;;;5054637;28;20025;-78
2021/11/04 08:11:09;;;;;;;9.75;5.82;;;6.70;99.90;;;;;;5036465;28;20021;-78
2021/11/04 08:13:34;;;;;;;8.95;4.20;;;6.80;99.90;;;;;;5036113;28;20029;-78
2021/11/04 08:16:00;;;;;;;8.27;4.68;;;6.90;99.90;;;;;;5053933;28;20027;-78
2021/11/04 08:18:25;;;;;;;7.28;4.13;;;6.90;99.90;;;;;;5053958;28;20031;-78
2021/11/04 08:20:51;;;;;;;8.32;4.93;;;7.00;99.90;;;;;;5054365;28;20033;-78
2021/11/04 08:23:17;;;;;;;7.43;4.68;;;7.00;99.90;;;;;;5058441;28;20029;-80
2021/11/04 08:25:44;;;;;;;6.38;4.45;;;7.00;99.90;;;;;;5059815;28;20509;-80
2021/11/04 08:28:10;;;;;;;7.28;4.20;;;7.10;99.90;;;;;;5038347;28;20482;-79
2021/11/04 08:30:36;;;;;;;12.00;4.57;;;7.00;99.90;;;;;;5058893;28;20028;-80
2021/11/04 08:33:02;;;;;;;13.05;4.55;;;7.10;99.90;;;;;;5057815;28;20032;-79
2021/11/04 08:35:28;;;;;;;9.23;4.72;;;7.20;99.90;;;;;;5053898;28;20543;-76
2021/11/04 08:37:54;;;;;;;8.98;4.30;;;7.20;99.90;;;;;;5054087;28;20386;-77
2021/11/04 08:40:21;;;;;;;7.90;3.75;;;7.20;99.90;;;;;;5036125;28;20025;-78
2021/11/04 08:42:47;;;;;;;10.65;5.18;;;7.20;99.90;;;;;;5054105;28;20025;-78
2021/11/04 08:45:13;;;;;;;11.20;4.57;;;7.30;99.90;;;;;;5040810;28;20056;-75
2021/11/04 08:47:39;;;;;;;11.18;4.65;;;7.30;99.90;;;;;;5056066;28;20146;-79
2021/11/04 08:50:07;;;;;;;7.63;4.93;;;7.40;99.90;;;;;;5073517;28;20017;-77
2021/11/04 08:52:33;;;;;;;8.68;3.70;;;7.50;99.90;;;;;;5055779;28;20039;-77
2021/11/04 08:55:00;;;;;;;7.47;3.80;;;7.60;99.90;;;;;;5073381;28;20025;-76
2021/11/04 08:57:26;;;;;;;5.97;3.70;;;7.70;99.90;;;;;;5055488;28;20013;-76
2021/11/04 08:59:51;;;;;;;5.95;3.75;;;7.70;99.90;;;;;;5060681;28;20082;-77
2021/11/04 09:02:19;;;;;;;5.65;3.97;;;7.80;99.90;;;;;;5077457;28;20032;-76
2021/11/04 09:04:46;;;;;;;7.35;4.63;;;7.80;99.90;;;;;;5060891;28;20016;-77
2021/11/04 09:07:17;;;;;;;9.57;3.70;;;7.80;99.90;;;;;;5078763;28;20547;-77
2021/11/04 09:09:43;;;;;;;6.10;3.72;;;7.90;99.90;;;;;;5078651;28;20074;-77
2021/11/04 09:12:09;;;;;;;6.68;4.00;;;7.80;99.90;;;;;;5066972;28;20021;-76
2021/11/04 09:14:36;;;;;;;7.95;4.35;;;7.90;99.90;;;;;;5064391;28;20028;-77
2021/11/04 09:17:02;;;;;;;5.50;3.40;;;7.90;99.90;;;;;;5060966;28;20032;-77
2021/11/04 09:19:28;;;;;;;7.22;3.72;;;7.90;99.90;;;;;;5056007;28;20549;-76
2021/11/04 09:21:54;;;;;;;6.22;3.63;;;7.90;99.90;;;;;;5077120;28;20469;-76
2021/11/04 09:24:19;;;;;;;5.95;3.40;;;8.00;99.90;;;;;;5077813;28;20476;-76
2021/11/04 09:26:45;;;;;;;5.55;3.55;;;8.10;99.90;;;;;;5077380;28;20025;-76
2021/11/04 09:29:10;;;;;;;7.38;4.60;;;8.10;99.90;;;;;;5060060;28;20531;-76
2021/11/04 09:31:36;;;;;;;9.63;4.40;;;8.10;99.90;;;;;;5059677;28;20044;-77
2021/11/04 09:34:02;;;;;;;6.18;3.50;;;8.20;99.90;;;;;;5078424;28;20036;-77
2021/11/04 09:36:29;;;;;;;6.85;3.50;;;8.10;99.90;;;;;;5059745;28;20409;-75
2021/11/04 09:38:56;;;;;;;6.03;3.10;;;8.20;99.90;;;;;;5059919;28;20083;-75
2021/11/04 09:41:21;;;;;;;7.25;2.95;;;8.10;99.90;;;;;;5077777;28;20107;-75
2021/11/04 09:43:47;;;;;;;4.95;3.03;;;8.20;99.90;;;;;;5077467;28;20056;-76
2021/11/04 09:46:13;;;;;;;5.63;3.28;;;8.20;99.90;;;;;;5077433;28;20025;-75
2021/11/04 09:48:39;;;;;;;6.47;3.60;;;8.30;99.90;;;;;;5077860;28;20023;-75
2021/11/04 09:51:06;;;;;;;6.63;3.20;;;8.40;99.90;;;;;;5077373;28;20016;-76
2021/11/04 09:53:32;;;;;;;4.57;3.33;;;8.40;99.90;;;;;;5077788;28;20047;-76
2021/11/04 09:56:00;;;;;;;4.65;2.55;;;8.60;99.90;;;;;;5059245;28;20448;-76
2021/11/04 09:58:26;;;;;;;5.75;2.55;;;8.60;99.90;;;;;;5076650;28;20367;-76
2021/11/04 10:00:52;;;;;;;8.60;2.65;;;8.80;99.90;;;;;;5076709;28;20082;-76
2021/11/04 10:03:17;;;;;;;10.48;3.92;;;8.90;99.90;;;;;;5040441;28;20048;-76
2021/11/04 10:05:52;;;;;;;6.90;2.75;;;9.10;99.90;;;;;;5055777;28;20025;-76
2021/11/04 10:08:34;;;;;;;6.95;2.90;;;9.20;99.90;;;;;;5072970;28;20057;-75
2021/11/04 10:11:06;;;;;;;7.25;2.50;;;9.40;99.90;;;;;;5058931;28;20021;-75
2021/11/04 10:13:32;;;;;;;5.03;2.55;;;9.50;99.90;;;;;;5076802;28;20032;-76
2021/11/04 10:15:58;;;;;;;7.35;2.08;;;9.60;99.90;;;;;;5079357;28;20561;-76
2021/11/04 10:18:24;;;;;;;8.13;2.65;;;9.70;99.90;;;;;;5080884;28;20040;-76
2021/11/04 10:21:00;;;;;;;4.55;2.30;;;9.60;99.90;;;;;;5061242;28;20400;-76
2021/11/04 10:23:35;;;;;;;5.80;2.03;;;9.60;99.90;;;;;;5068969;28;20021;-76
2021/11/04 10:26:19;;;;;;;3.53;2.10;;;9.50;99.90;;;;;;5068061;28;20021;-75
2021/11/04 10:28:47;;;;;;;6.72;1.75;;;9.40;99.90;;;;;;5085876;28;20020;-76
2021/11/04 10:31:15;;;;;;;3.53;1.92;;;9.30;99.90;;;;;;5063505;28;20024;-75
2021/11/04 10:33:43;;;;;;;4.13;1.80;;;9.30;99.90;;;;;;5080852;28;20024;-75
2021/11/04 10:36:17;;;;;;;6.00;1.92;;;9.10;99.90;;;;;;5081013;28;20024;-75
2021/11/04 10:38:49;;;;;;;4.78;2.70;;;9.00;99.90;;;;;;5080478;28;20032;-75
2021/11/04 10:41:25;;;;;;;4.22;2.85;;;8.90;99.90;;;;;;5062416;28;20115;-75
2021/11/04 10:43:56;;;;;;;5.47;2.35;;;8.90;99.90;;;;;;5062394;28;20033;-76
2021/11/04 10:46:24;;;;;;;4.40;2.33;;;8.90;99.90;;;;;;5080883;28;20025;-76
2021/11/04 10:49:01;;;;;;;5.15;2.50;;;8.90;99.90;;;;;;5062108;28;20024;-77
2021/11/04 10:51:28;;;;;;;3.38;2.15;;;8.90;99.90;;;;;;5080357;28;20477;-75
2021/11/04 10:54:17;;;;;;;4.50;2.47;;;9.00;99.90;;;;;;5080134;28;20020;-74
2021/11/04 10:56:44;;;;;;;4.60;1.80;;;9.10;99.90;;;;;;5079896;28;20056;-75
2021/11/04 10:59:17;;;;;;;4.40;2.78;;;9.20;99.90;;;;;;5061705;28;20027;-75
2021/11/04 11:02:04;;;;;;;2.97;2.08;;;9.30;99.90;;;;;;5081563;28;20032;-75
2021/11/04 11:04:34;;;;;;;2.53;1.88;;;9.40;99.90;;;;;;5080904;28;20028;-74
2021/11/04 11:07:00;;;;;;;2.45;1.48;;;9.50;99.90;;;;;;5080685;28;20036;-75
2021/11/04 11:09:29;;;;;;;2.92;1.52;;;9.50;99.90;;;;;;5062006;28;20381;-75
2021/11/04 11:11:58;;;;;;;;;;;9.50;99.90;;;;;;5081316;28;20012;-75
2021/11/04 11:14:25;;;;;;;1.83;1.20;;;9.50;99.90;;;;;;5080491;28;19994;-75
2021/11/04 11:16:52;;;;;;;3.00;1.27;;;9.50;99.90;;;;;;5066105;28;20508;-76
2021/11/04 11:19:31;;;;;;;1.55;0.90;;;9.50;99.90;;;;;;5062673;28;20405;-76
2021/11/04 11:21:58;;;;;;;2.05;1.33;;;9.50;99.90;;;;;;5064224;28;20032;-76
2021/11/04 11:24:50;;;;;;;2.75;1.60;;;9.50;99.90;;;;;;5089380;28;20031;-76
2021/11/04 11:27:17;;;;;;;3.28;1.70;;;9.60;99.90;;;;;;5083935;28;20036;-76
2021/11/04 11:29:48;;;;;;;4.85;1.95;;;9.70;99.90;;;;;;5086749;28;20020;-77
2021/11/04 11:32:29;;;;;;;2.97;1.83;;;9.80;99.90;;;;;;5070109;28;20013;-76
2021/11/04 11:35:09;;;;;;;2.53;1.65;;;9.90;99.90;;;;;;5089071;28;20063;-77
2021/11/04 11:37:36;;;;;;;3.97;2.35;;;9.90;99.90;;;;;;5087768;28;20017;-75
2021/11/04 11:40:15;;;;;;;4.75;2.33;;;10.00;99.90;;;;;;5078677;28;20025;-75
2021/11/04 11:42:59;;;;;;;5.97;1.98;;;10.00;99.90;;;;;;5071143;28;20036;-77
2021/11/04 11:45:34;;;;;;;4.10;2.10;;;10.10;99.90;;;;;;5082145;28;20092;-76
2021/11/04 11:48:22;;;;;;;5.72;2.13;;;10.30;99.90;;;;;;5067824;28;20035;-76
2021/11/04 11:50:56;;;;;;;3.05;1.95;;;10.60;99.90;;;;;;5086077;28;20024;-76
2021/11/04 11:53:23;;;;;;;9.05;2.83;;;10.90;99.90;;;;;;5065138;28;20027;-75
2021/11/04 11:55:49;;;;;;;2.88;1.40;;;11.00;99.90;;;;;;5063117;28;20037;-74
2021/11/04 11:58:20;;;;;;;2.67;0.65;;;11.00;99.90;;;;;;5068295;28;20047;-75
2021/11/04 12:00:50;;;;;;;3.28;0.98;;;10.90;99.90;;;;;;5067613;28;20038;-75
2021/11/04 12:03:38;;;;;;;4.35;1.20;;;10.80;99.90;;;;;;5084621;28;20088;-75
2021/11/04 12:06:26;;;;;;;1.25;0.98;;;10.80;99.90;;;;;;5079800;28;20051;-76
2021/11/04 12:08:58;;;;;;;1.92;1.35;;;11.00;99.90;;;;;;5081444;28;20024;-75
2021/11/04 12:11:42;;;;;;;3.90;0.65;;;11.40;99.90;;;;;;5056156;28;20012;-75
2021/11/04 12:14:19;;;;;;;4.32;1.17;;;11.60;99.90;;;;;;5074773;28;20024;-75
2021/11/04 12:17:07;;;;;;;1.35;0.95;;;11.70;99.90;;;;;;5056109;28;20112;-75
2021/11/04 12:19:46;;;;;;;2.03;0.82;;;11.80;99.90;;;;;;5074293;28;20107;-74
2021/11/04 12:22:24;;;;;;;3.78;0.50;;;11.60;99.90;;;;;;5074473;28;20162;-75
2021/11/04 12:25:01;;;;;;;1.08;0.60;;;13.00;99.90;;;;;;5073746;28;20032;-75
2021/11/04 12:27:41;;;;;;;2.38;0.57;;;11.60;99.90;;;;;;5055736;28;20504;-74
2021/11/04 12:30:12;;;;;;;1.08;0.63;;;11.80;99.90;;;;;;5073894;28;20021;-75
2021/11/04 12:32:37;;;;;;;0.80;0.55;;;12.00;99.90;;;;;;5055620;28;20093;-75
2021/11/04 12:35:07;;;;;;;1.17;0.38;;;12.20;99.90;;;;;;5055724;28;20109;-74
2021/11/04 12:37:34;;;;;;;1.08;0.63;;;12.20;99.90;;;;;;5055643;28;20027;-75
2021/11/04 12:40:04;;;;;;;5.05;0.38;;;12.20;99.90;;;;;;5055597;28;20035;-75
2021/11/04 12:42:30;;;;;;;1.75;0.50;;;12.20;99.90;;;;;;5073978;28;20027;-75
2021/11/04 12:44:56;;;;;;;1.10;0.57;;;12.20;99.90;;;;;;5055554;28;20029;-75
2021/11/04 12:47:24;;;;;;;1.13;0.45;;;12.20;99.90;;;;;;5055434;28;20025;-75
2021/11/04 12:49:52;;;;;;;1.33;0.50;;;12.10;99.90;;;;;;5073442;28;20444;-75
2021/11/04 12:52:19;;;;;;;0.50;0.32;;;12.10;99.90;;;;;;5055866;28;20066;-75
2021/11/04 12:54:50;;;;;;;3.95;0.50;;;12.30;99.90;;;;;;5073412;28;20018;-75
2021/11/04 12:57:17;;;;;;;5.93;0.55;;;12.40;99.90;;;;;;5073050;28;20441;-76